Prestwick, United Kingdom

1:56 AM BST on August 25, 2016 (GMT +0100)
Crummieholm Gardens | | Change Station

Elev 95 ft 55.55 °N, 4.63 °W | Updated 3 minutes ago

Partly Cloudy
Partly Cloudy
54.3 °F
Feels Like 54.3 °F
N
0.0
Wind Variable Wind from North
Gusts 0.6 mph

Today
High -- | Low -- °F
--% Chance of Precip.
Yesterday
High -- | Low -- °F
Precip. -- in
Pressure 30.09 in
Visibility 6.2 miles
Clouds Few 2000 ft
Dew Point 50 °F
Humidity 86%
Rainfall 0.00 in
Snow Depth Not available.
6:10 AM 8:28 PM
Waning Gibbous, 51% visible
METAR EGPK 250050Z VRB02KT 9999 FEW020 12/09 Q1019
Pressure 30.09 in
Visibility 6.2 miles
Clouds Few 2000 ft
Dew Point 50 °F
Humidity 86%
Rainfall 0.00 in
Snow Depth Not available.
6:10 AM 8:28 PM
Waning Gibbous, 51% visible
METAR EGPK 250050Z VRB02KT 9999 FEW020 12/09 Q1019

10-Day Weather Forecast

×

Almanac

Astronomy

Aug. 25, 2016 Rise Set
Actual Time
Civil Twilight
Nautical Twilight
Astronomical Twilight
Moon
Length of Visible Light
Length of Day
Tomorrow will be .
, % of the Moon is Illuminated

Today's Extremes

Country Highs Country Lows

Community

WunderPhotos

Upload Photos

1,934,748 photos uploaded!

WunderBlog® & News

Nearby

Air Quality

  Air Quality AQ Index Pollutant
Not available.

Snow Depth

Station Depth Elevation

Earthquake Activity

City Distance Mag. Time & Date
Minimum magnitude displayed is 2.5.

Coastal Water Temperatures

Place Temperature

Stations

Nearby Weather Stations

Station Location Temp. Windchill Dew Point Humidity Wind Precip. Elev Updated Type